This is the latest recevied weather packets stored in our database for station/object IT9CYW-10. If no packets are shown the sender has not sent any weather packets the latest 10 day(s).
| Time | Temp. | Humidity | Pressure | Rain* | Wind** | Luminosity | Snow |
|---|---|---|---|---|---|---|---|
| 1778141610 | 23.33° C | 47% | 991 hPa | - | - | 587 W/m² | - |
| 1778140710 | 23.33° C | 50% | 991.4 hPa | - | - | 524 W/m² | - |
| 1778139810 | 22.78° C | 51% | 991.7 hPa | - | - | 499 W/m² | - |
| 1778138910 | 22.78° C | 55% | 991.9 hPa | - | - | 334 W/m² | - |
| 1778138010 | 21.11° C | 60% | 991.7 hPa | - | - | 345 W/m² | - |
| 1778137109 | 21.11° C | 60% | 991.7 hPa | - | - | 350 W/m² | - |
| 1778136209 | 20.56° C | 63% | 991.5 hPa | - | - | 300 W/m² | - |
| 1778135309 | 19.44° C | 70% | 991.7 hPa | - | - | 253 W/m² | - |
| 1778134409 | 18.89° C | 75% | 991.5 hPa | - | - | 201 W/m² | - |
| 1778133509 | 17.22° C | 80% | 991.5 hPa | - | - | 157 W/m² | - |
| 1778132608 | 16.11° C | 86% | 991.7 hPa | - | - | 121 W/m² | - |
| 1778130806 | 15° C | 91% | 991.5 hPa | - | - | 67 W/m² | - |
| 1778129906 | 14.44° C | 91% | 991.5 hPa | - | - | 39 W/m² | - |
| 1778129006 | 14.44° C | 91% | 991.4 hPa | - | - | 21 W/m² | - |
| 1778128106 | 15° C | 91% | 991.4 hPa | - | - | 12 W/m² | - |
| 1778127205 | 14.44° C | 91% | 991.7 hPa | - | - | 4 W/m² | - |
| 1778126305 | 15° C | 90% | 991.7 hPa | - | - | 0 W/m² | - |
| 1778125405 | 15° C | 90% | 992.2 hPa | - | - | 0 W/m² | - |
| 1778124505 | 15° C | 90% | 992.4 hPa | - | - | 0 W/m² | - |
| 1778123605 | 15° C | 90% | 992.2 hPa | - | - | 0 W/m² | - |
| 1778122704 | 15° C | 90% | 992.2 hPa | - | - | 0 W/m² | - |
| 1778121804 | 15° C | 89% | 992.2 hPa | - | - | 0 W/m² | - |
| 1778120904 | 15.56° C | 89% | 992.4 hPa | - | - | 0 W/m² | - |
| 1778120004 | 15.56° C | 88% | 992 hPa | - | - | 0 W/m² | - |
| 1778119104 | 15.56° C | 87% | 992.2 hPa | - | - | 0 W/m² | - |
* Rain since midnight (hover to see other rain measurements)
** Current wind speed in m/s (hover to see current wind gust speed)